To NAV CANADA Home Page Login to a new session Search on AWWS site Feedback and Comments Disclaimer Vers la page française équivalente Tips FAQ What's new on the site To the Forecasts and Observations / NOTAM section To "File a Flight Plan" website Publications and other links Update of the User's profile FIC Telephone Numbers My Weather Data Folder Route Weather Data Regional Weather Data Local Weather Data To the Forecasts and Observations / NOTAM section
Request Generated 07/31/2015 at 03:02:37 UTC . Weather information available at that time is displayed.

METAR/TAF

SLAVE LAKE/AB    (show WxCam)

METAR CYZH 310300Z AUTO 25002KT 9SM FEW240 19/09 A3009 RMK SLP193
DENSITY ALT 2600FT=
METAR CYZH 310200Z AUTO 28005KT 9SM CLR 21/09 A3009 RMK SLP194
DENSITY ALT 2800FT=
METAR CYZH 310100Z AUTO 31009KT 9SM CLR 21/10 A3010 RMK SLP197
DENSITY ALT 2800FT=

TAF CYZH 310038Z 3101/3113 30010KT P6SM BKN250
FM310600 VRB03KT P6SM BKN120 OVC220
RMK FCST BASED ON AUTO OBS. NXT FCST BY 310700Z=
Your time UTC time
Weather data provided by Environment Canada and NAV CANADA